METAR Data
IDs: Format: Raw Decoded Include TAF

Data at: 2009 UTC 14 Dec 2018

KAPY 141955Z AUTO 29021G32KT 10SM CLR 18/M07 A3017 RMK AO2 T01891073
KAPY 141935Z AUTO 31020G29KT 10SM CLR 18/M07 A3018 RMK AO2 T01851073
KAPY 141915Z AUTO 29017G33KT 10SM CLR 18/M07 A3019 RMK AO2 T01831072
KAPY 141855Z AUTO 30020G34KT 10SM CLR 17/M07 A3020 RMK AO2 T01801071
KAPY 141835Z AUTO 31021G34KT 10SM CLR 17/M07 A3020 RMK AO2 T01771069
KAPY 141815Z AUTO 30019G31KT 10SM CLR 17/M07 A3021 RMK AO2 T01771073
KAPY 141755Z AUTO 30022G33KT 10SM CLR 17/M07 A3023 RMK AO2 T01701075
KAPY 141735Z AUTO 31027G36KT 10SM CLR 16/M07 A3023 RMK AO2 T01661074
KAPY 141715Z AUTO 30019G31KT 10SM CLR 16/M07 A3024 RMK AO2 T01641072
KAPY 141655Z AUTO 30025G32KT 10SM CLR 16/M07 A3025 RMK AO2 T01601074
KAPY 141635Z AUTO 30018G34KT 10SM CLR 15/M07 A3025 RMK AO2 T01551077
KAPY 141615Z AUTO 30024G33KT 10SM CLR 15/M07 A3025 RMK AO2 T01501077
KAPY 141555Z AUTO 31024G37KT 10SM CLR 15/M07 A3025 RMK AO2 T01501072
KAPY 141535Z AUTO 30017G37KT 10SM CLR 14/M07 A3025 RMK AO2 T01451076
KAPY 141515Z AUTO 31025G36KT 10SM CLR 13/M07 A3024 RMK AO2 T01411077
KAPY 141455Z AUTO 31023G30KT 10SM CLR 13/M07 A3023 RMK AO2 T01371079
KAPY 141435Z AUTO 31021G30KT 10SM CLR 13/M07 A3023 RMK AO2 T01331077
KAPY 141415Z AUTO 31021G30KT 10SM CLR 12/M07 A3021 RMK AO2 T01281079
KAPY 141355Z AUTO 32021G32KT 10SM CLR 12/M08 A3020 RMK AO2 T01231080
KAPY 141335Z AUTO 31020G35KT 10SM CLR 12/M07 A3019 RMK AO2 T01211080
KAPY 141315Z AUTO 31017G27KT 10SM CLR 12/M07 A3019 RMK AO2 T01201075
KAPY 141255Z AUTO 31019G24KT 10SM CLR 11/M07 A3018 RMK AO2 T01181074
KAPY 141235Z AUTO 31015G21KT 10SM CLR 11/M07 A3017 RMK AO2 T01151080
KAPY 141215Z AUTO 31015G21KT 10SM CLR 11/M08 A3015 RMK AO2 T01151083
KAPY 141155Z AUTO 31014G25KT 10SM CLR 11/M08 A3015 RMK AO2 T01151086
KAPY 141135Z AUTO 31013G28KT 10SM CLR 11/M08 A3014 RMK AO2 T01181090
KAPY 141115Z AUTO 31015G23KT 10SM CLR 12/M08 A3013 RMK AO2 T01201087
KAPY 141055Z AUTO 31012G23KT 10SM CLR 11/M07 A3013 RMK AO2 T01171074
KAPY 141035Z AUTO 31013G22KT 10SM CLR 11/M07 A3013 RMK AO2 T01191069
KAPY 141015Z AUTO 30012G19KT 10SM CLR 12/M06 A3013 RMK AO2 T01201064
KAPY 140955Z AUTO 30012G21KT 10SM CLR 11/M05 A3012 RMK AO2 T01161053
KAPY 140935Z AUTO 31013G17KT 10SM CLR 11/M03 A3012 RMK AO2 T01081034
KAPY 140915Z AUTO 28007KT 10SM CLR 10/M01 A3014 RMK AO2 T01061015
KAPY 140855Z AUTO 28008KT 10SM CLR 10/M01 A3013 RMK AO2 T01051015
KAPY 140835Z AUTO 28007KT 10SM CLR 11/M02 A3014 RMK AO2 T01151024
KAPY 140815Z AUTO 28007KT 10SM CLR 11/M02 A3014 RMK AO2 T01151027
KAPY 140755Z AUTO 28005KT 10SM CLR 12/M03 A3013 RMK AO2 T01251035
KAPY 140735Z AUTO 29008G15KT 10SM CLR 13/M03 A3013 RMK AO2 T01311041
KAPY 140715Z AUTO 30009G15KT 10SM CLR 13/M03 A3012 RMK AO2 T01321040
KAPY 140655Z AUTO 29013G21KT 10SM CLR 13/M03 A3012 RMK AO2 T01341039
KAPY 140635Z AUTO 30013G20KT 10SM CLR 13/M03 A3012 RMK AO2 T01381040
KAPY 140615Z AUTO 30013G21KT 10SM CLR 13/M03 A3012 RMK AO2 T01401040
KAPY 140555Z AUTO 30014G23KT 10SM CLR 14/M04 A3012 RMK AO2 T01411041
KAPY 140535Z AUTO 29008G21KT 10SM CLR 13/M04 A3012 RMK AO2 T01411042
KAPY 140515Z AUTO 31013G22KT 10SM CLR 13/M04 A3012 RMK AO2 T01401042
KAPY 140455Z AUTO 31015G19KT 10SM CLR 13/M04 A3012 RMK AO2 T01411044
KAPY 140435Z AUTO 31019G26KT 10SM CLR 14/M04 A3012 RMK AO2 T01441045
KAPY 140415Z AUTO 31017G30KT 10SM CLR 14/M04 A3012 RMK AO2 T01461046
KAPY 140355Z AUTO 31018G33KT 10SM CLR 15/M05 A3011 RMK AO2 T01501047
KAPY 140335Z AUTO 32017G29KT 10SM CLR 14/M04 A3010 RMK AO2 T01451045
KAPY 140315Z AUTO 33025G36KT 10SM CLR 14/M04 A3009 RMK AO2 T01421041
KAPY 140255Z AUTO 33023G30KT 10SM CLR 13/M02 A3008 RMK AO2 T01351021
KAPY 140235Z AUTO 33023G34KT 10SM CLR 13/M01 A3006 RMK AO2 T01321009
KAPY 140215Z AUTO 34027G37KT 10SM CLR 13/00 A3004 RMK AO2 T01311004
KAPY 140155Z AUTO 34028G42KT 10SM CLR 13/00 A3003 RMK AO2 T01341003
KAPY 140135Z AUTO 33018G35KT 10SM CLR 13/00 A3004 RMK AO2 T01381002
KAPY 140115Z AUTO 32015G29KT 10SM SCT120 13/00 A3004 RMK AO2 T01400000
KAPY 140055Z AUTO 33016G33KT 10SM BKN120 14/00 A3002 RMK AO2 T01451001
KAPY 140035Z AUTO 33023G36KT 10SM SCT120 15/00 A3000 RMK AO2 T01500000
KAPY 140015Z AUTO 33017G28KT 10SM CLR 15/00 A2998 RMK AO2 T01550000
KAPY 132355Z AUTO 33018G31KT 10SM CLR 16/00 A2997 RMK AO2 T01580000
KAPY 132335Z AUTO 34021G29KT 10SM CLR 16/00 A2995 RMK AO2 T01640001
KAPY 132315Z AUTO 34019G33KT 10SM CLR 17/00 A2993 RMK AO2 T01740004
KAPY 132255Z AUTO 34022G32KT 10SM CLR 18/00 A2992 RMK AO2 T01850004
KAPY 132235Z AUTO 33021G31KT 10SM CLR 19/00 A2991 RMK AO2 T01930005
KAPY 132215Z AUTO 33020G34KT 10SM CLR 20/00 A2990 RMK AO2 T02000003
KAPY 132155Z AUTO 34025G35KT 10SM CLR 22/00 A2987 RMK AO2 T02241006
KAPY 132135Z AUTO 34022G29KT 10SM CLR 23/03 A2985 RMK AO2 T02350038
KAPY 132115Z AUTO 34019G28KT 10SM CLR 24/05 A2983 RMK AO2 T02420054
KAPY 132055Z AUTO 34017G24KT 10SM CLR 25/05 A2982 RMK AO2 T02500047
KAPY 132035Z AUTO 34018G25KT 10SM CLR 25/06 A2980 RMK AO2 T02570062
KAPY 132015Z AUTO 31023G32KT 10SM CLR 26/02 A2979 RMK AO2 T02680026
KAPY 131955Z AUTO 31019G28KT 10SM CLR 26/02 A2980 RMK AO2 T02680026
KAPY 131935Z AUTO 31020G27KT 10SM CLR 27/02 A2979 RMK AO2 T02710023
KAPY 131915Z AUTO 29016G26KT 10SM CLR 27/02 A2980 RMK AO2 T02720019
KAPY 131855Z AUTO 30019G28KT 10SM CLR 26/03 A2980 RMK AO2 T02690032
KAPY 131835Z AUTO 28008G17KT 10SM 26/07 A2981 RMK AO2 T02640077